createdAt,value
2022-09-21T00:04:07.994Z,4.10
2022-09-21T00:09:00.426Z,4.78
2022-09-21T00:13:55.271Z,4.32
2022-09-21T00:18:48.594Z,4.95
2022-09-21T00:23:41.419Z,4.13
2022-09-21T00:28:33.144Z,4.50
2022-09-21T00:33:25.190Z,3.25
2022-09-21T00:38:16.801Z,4.30
2022-09-21T00:43:16.366Z,3.25
2022-09-21T00:48:08.114Z,4.43
2022-09-21T00:53:00.147Z,2.53
2022-09-21T00:57:57.728Z,3.22
2022-09-21T01:02:49.577Z,2.75
2022-09-21T01:07:46.049Z,3.20
2022-09-21T01:12:54.728Z,2.88
2022-09-21T01:18:02.013Z,2.35
2022-09-21T01:23:15.129Z,2.30
2022-09-21T01:28:09.630Z,2.35
2022-09-21T01:33:26.067Z,2.35
2022-09-21T01:38:26.978Z,2.03
2022-09-21T01:43:27.504Z,2.10
2022-09-21T01:48:22.390Z,1.65
2022-09-21T01:53:21.013Z,1.70
2022-09-21T01:58:30.342Z,1.67
2022-09-21T02:03:33.889Z,1.83
2022-09-21T02:08:29.074Z,1.50
2022-09-21T02:13:27.719Z,1.50
2022-09-21T02:18:35.743Z,1.30
2022-09-21T02:23:57.980Z,1.63
2022-09-21T02:29:01.733Z,1.30
2022-09-21T02:34:02.153Z,1.42
2022-09-21T02:39:07.572Z,1.42
2022-09-21T02:44:01.971Z,1.48
2022-09-21T02:48:57.969Z,1.55
2022-09-21T02:53:52.865Z,1.45
2022-09-21T02:58:49.861Z,1.42
2022-09-21T03:03:41.732Z,1.80
2022-09-21T03:08:33.400Z,1.48
2022-09-21T03:13:25.547Z,1.95
2022-09-21T03:18:17.242Z,1.23
2022-09-21T03:23:08.970Z,1.17
2022-09-21T03:28:01.374Z,1.35
2022-09-21T03:32:54.042Z,1.10
2022-09-21T03:37:48.821Z,1.30
2022-09-21T03:42:41.673Z,1.10
2022-09-21T03:47:33.436Z,1.10
2022-09-21T03:52:25.093Z,1.23
2022-09-21T03:57:16.792Z,1.30
2022-09-21T04:02:08.552Z,1.25
2022-09-21T04:07:00.670Z,1.80
2022-09-21T04:11:54.145Z,1.30
2022-09-21T04:16:46.124Z,1.20
2022-09-21T04:21:37.801Z,1.02
2022-09-21T04:26:32.729Z,1.35
2022-09-21T04:31:28.805Z,1.15
2022-09-21T04:36:22.226Z,1.58
2022-09-21T04:41:15.371Z,1.90
2022-09-21T04:46:09.122Z,1.55
2022-09-21T04:51:00.832Z,1.20
2022-09-21T04:55:52.711Z,1.27
2022-09-21T05:00:44.315Z,1.60
2022-09-21T05:05:35.961Z,1.55
2022-09-21T05:10:27.614Z,1.77
2022-09-21T05:15:19.521Z,1.90
2022-09-21T05:20:11.863Z,2.35
2022-09-21T05:25:04.125Z,1.83
2022-09-21T05:29:56.051Z,2.05
2022-09-21T05:35:06.568Z,1.70
2022-09-21T05:39:58.506Z,2.55
2022-09-21T05:44:50.729Z,2.35
2022-09-21T05:50:20.903Z,2.42
2022-09-21T05:55:43.255Z,2.00
2022-09-21T06:01:02.064Z,2.33
2022-09-21T06:05:53.802Z,1.90
2022-09-21T06:10:45.945Z,2.20
2022-09-21T06:15:38.526Z,2.30
2022-09-21T06:20:30.261Z,2.38
2022-09-21T06:25:22.052Z,2.58
2022-09-21T06:30:13.951Z,2.20
2022-09-21T06:35:06.047Z,2.75
2022-09-21T06:39:57.705Z,2.38
2022-09-21T06:44:49.340Z,2.08
2022-09-21T06:49:42.667Z,3.20
2022-09-21T06:54:34.496Z,2.80
2022-09-21T06:59:26.112Z,1.98
2022-09-21T07:04:20.873Z,2.90
2022-09-21T07:14:26.534Z,2.08
2022-09-21T07:19:18.138Z,2.20
2022-09-21T07:24:12.449Z,2.10
2022-09-21T07:29:04.435Z,2.05
2022-09-21T07:33:58.784Z,1.60
2022-09-21T07:38:50.429Z,2.30
2022-09-21T07:43:42.431Z,1.80
2022-09-21T07:48:34.196Z,1.33
2022-09-21T07:53:26.327Z,1.75
2022-09-21T07:58:36.794Z,1.05
2022-09-21T08:03:28.417Z,1.20
2022-09-21T08:08:20.884Z,1.20
2022-09-21T08:13:12.622Z,1.55
2022-09-21T08:18:07.331Z,1.00
2022-09-21T08:23:00.131Z,1.20
2022-09-21T08:27:52.536Z,1.50
2022-09-21T08:32:51.539Z,0.90
2022-09-21T08:37:43.741Z,1.00
2022-09-21T08:42:57.052Z,1.20
2022-09-21T08:48:02.775Z,0.95
2022-09-21T08:53:01.726Z,1.08
2022-09-21T08:57:53.547Z,0.82
2022-09-21T09:03:10.793Z,1.17
2022-09-21T09:08:24.456Z,0.88
2022-09-21T09:13:31.150Z,0.90
2022-09-21T09:18:53.710Z,0.98
2022-09-21T09:23:52.087Z,1.17
2022-09-21T09:29:28.597Z,0.90
2022-09-21T09:34:24.921Z,1.10
2022-09-21T09:39:17.558Z,1.10
2022-09-21T09:44:12.263Z,1.00
2022-09-21T09:49:06.809Z,1.15
2022-09-21T09:54:00.980Z,1.27
2022-09-21T09:59:06.964Z,1.30
2022-09-21T10:04:07.697Z,0.93
2022-09-21T10:09:00.062Z,1.50
2022-09-21T10:13:52.912Z,1.02
2022-09-21T10:19:01.760Z,1.38
2022-09-21T10:24:03.340Z,1.77
2022-09-21T10:29:17.243Z,1.05
2022-09-21T10:34:15.960Z,0.95
2022-09-21T10:39:31.946Z,1.02
2022-09-21T10:44:55.198Z,1.10
2022-09-21T10:49:52.858Z,1.10
2022-09-21T10:59:37.514Z,1.23
2022-09-21T11:04:51.525Z,1.17
2022-09-21T11:09:46.230Z,1.10
2022-09-21T11:14:49.676Z,1.10
2022-09-21T11:19:47.215Z,1.23
2022-09-21T11:30:03.473Z,1.00
2022-09-21T11:35:10.831Z,1.08
2022-09-21T11:40:38.099Z,0.90
2022-09-21T11:45:35.562Z,0.98
2022-09-21T11:50:46.682Z,1.50
2022-09-21T11:55:57.354Z,0.90
2022-09-21T12:00:58.129Z,1.20
2022-09-21T12:06:18.108Z,1.00
2022-09-21T12:11:18.644Z,0.90
2022-09-21T12:16:11.658Z,0.98
2022-09-21T12:21:15.653Z,0.60
2022-09-21T12:26:09.637Z,0.80
2022-09-21T12:31:09.693Z,0.70
2022-09-21T12:36:10.450Z,0.60
2022-09-21T12:41:20.481Z,0.50
2022-09-21T12:46:24.351Z,0.70
2022-09-21T12:51:32.936Z,0.50
2022-09-21T12:56:50.198Z,0.60
2022-09-21T13:01:52.251Z,0.40
2022-09-21T13:07:21.169Z,0.30
2022-09-21T13:12:30.622Z,0.40
2022-09-21T13:17:27.958Z,0.50
2022-09-21T13:22:20.090Z,0.40
2022-09-21T13:27:13.837Z,0.38
2022-09-21T13:32:11.766Z,0.40
2022-09-21T13:37:14.137Z,0.40
2022-09-21T13:42:33.756Z,0.40
2022-09-21T13:47:31.380Z,0.50
2022-09-21T13:52:30.143Z,0.45
2022-09-21T13:57:32.215Z,0.50
2022-09-21T14:02:37.132Z,0.40
2022-09-21T14:07:31.461Z,0.40
2022-09-21T14:12:26.969Z,0.40
2022-09-21T14:17:35.446Z,0.40
2022-09-21T14:22:27.203Z,0.50
2022-09-21T14:27:32.871Z,0.50
2022-09-21T14:32:26.781Z,0.45
2022-09-21T14:37:29.465Z,0.40
2022-09-21T14:42:27.312Z,0.35
2022-09-21T14:47:47.624Z,0.30
2022-09-21T14:53:01.848Z,0.30
2022-09-21T14:58:22.235Z,0.30
2022-09-21T15:03:30.771Z,0.30
2022-09-21T15:09:00.348Z,0.40
2022-09-21T15:14:15.809Z,0.40
2022-09-21T15:19:16.367Z,0.40
2022-09-21T15:24:34.366Z,0.40
2022-09-21T15:34:20.468Z,0.30
2022-09-21T15:39:32.449Z,0.45
2022-09-21T15:44:31.698Z,0.30
2022-09-21T15:49:23.821Z,0.30
2022-09-21T15:54:42.328Z,0.40
2022-09-21T15:59:34.533Z,0.40
2022-09-21T16:04:28.174Z,0.43
2022-09-21T16:09:34.462Z,0.40
2022-09-21T16:14:45.070Z,0.40
2022-09-21T16:19:44.322Z,0.40
2022-09-21T16:24:36.765Z,0.40
2022-09-21T16:29:40.324Z,0.50
2022-09-21T16:34:35.245Z,0.40
2022-09-21T16:39:28.098Z,0.50
2022-09-21T16:44:22.915Z,0.50
2022-09-21T16:49:16.902Z,0.60
2022-09-21T16:54:08.852Z,0.60
2022-09-21T16:59:03.781Z,0.77
2022-09-21T17:03:56.128Z,0.60
2022-09-21T17:08:49.155Z,0.52
2022-09-21T17:13:41.099Z,0.60
2022-09-21T17:18:33.608Z,0.50
2022-09-21T17:23:29.235Z,0.60
2022-09-21T17:28:26.143Z,0.80
2022-09-21T17:33:19.953Z,0.67
2022-09-21T17:38:14.606Z,0.60
2022-09-21T17:43:27.652Z,0.80
2022-09-21T17:48:21.762Z,0.60
2022-09-21T17:53:32.884Z,0.70
2022-09-21T17:58:44.627Z,0.90
2022-09-21T18:03:41.193Z,0.80
2022-09-21T18:08:34.958Z,0.60
2022-09-21T18:13:38.270Z,0.70
2022-09-21T18:18:31.741Z,0.60
2022-09-21T18:23:50.111Z,0.60
2022-09-21T18:33:47.069Z,0.60
2022-09-21T18:38:52.526Z,0.80
2022-09-21T18:43:49.151Z,0.80
2022-09-21T18:49:06.922Z,1.92
2022-09-21T18:54:00.156Z,1.42
2022-09-21T18:58:52.603Z,0.80
2022-09-21T19:03:45.092Z,0.63
2022-09-21T19:09:06.111Z,0.75
2022-09-21T19:14:00.600Z,0.60
2022-09-21T19:19:14.284Z,0.90
2022-09-21T19:24:09.134Z,0.68
2022-09-21T19:29:27.148Z,0.70
2022-09-21T19:34:19.846Z,0.70
2022-09-21T19:39:12.292Z,0.90
2022-09-21T19:44:10.295Z,1.35
2022-09-21T19:49:18.132Z,1.60
2022-09-21T19:54:33.372Z,1.90
2022-09-21T19:59:44.953Z,1.25
2022-09-21T20:04:46.133Z,1.23
2022-09-21T20:09:44.721Z,1.70
2022-09-21T20:15:00.581Z,0.90
2022-09-21T20:20:01.210Z,0.60
2022-09-21T20:25:01.715Z,0.63
2022-09-21T20:29:53.992Z,0.50
2022-09-21T20:34:45.694Z,0.50
2022-09-21T20:39:38.120Z,0.60
2022-09-21T20:44:29.872Z,0.60
2022-09-21T20:49:21.559Z,0.50
2022-09-21T20:54:13.385Z,0.50
2022-09-21T20:59:04.949Z,0.55
2022-09-21T21:04:01.831Z,0.60
2022-09-21T21:08:53.729Z,0.53
2022-09-21T21:13:45.698Z,0.70
2022-09-21T21:18:40.085Z,0.50
2022-09-21T21:23:52.107Z,0.60
2022-09-21T21:28:43.939Z,0.40
2022-09-21T21:33:35.573Z,0.60
2022-09-21T21:38:27.213Z,0.47
2022-09-21T21:43:19.236Z,0.50
2022-09-21T21:48:10.942Z,0.50
2022-09-21T21:53:03.325Z,0.40
2022-09-21T21:57:55.012Z,0.52
2022-09-21T22:02:46.926Z,0.43
2022-09-21T22:07:40.168Z,0.52
2022-09-21T22:12:31.780Z,0.60
2022-09-21T22:17:24.490Z,0.68
2022-09-21T22:22:16.092Z,0.68
2022-09-21T22:27:07.829Z,0.57
2022-09-21T22:32:00.763Z,0.70
2022-09-21T22:36:52.588Z,0.70
2022-09-21T22:41:44.217Z,0.70
2022-09-21T22:46:36.568Z,0.80
2022-09-21T22:51:29.256Z,0.70
2022-09-21T22:56:26.484Z,0.60
2022-09-21T23:01:25.352Z,0.70
2022-09-21T23:06:19.594Z,0.75
2022-09-21T23:11:21.866Z,0.75
2022-09-21T23:16:15.532Z,1.00
2022-09-21T23:21:11.341Z,0.70
2022-09-21T23:26:14.660Z,0.80
2022-09-21T23:31:09.806Z,0.70
2022-09-21T23:36:02.192Z,0.70
2022-09-21T23:40:54.136Z,0.82
2022-09-21T23:45:45.837Z,0.70
2022-09-21T23:50:37.426Z,0.95
2022-09-21T23:55:30.929Z,0.80
